createdAt,value
2018-08-30T00:00:45.753Z,18.30
2018-08-30T00:03:15.705Z,18.20
2018-08-30T00:05:44.123Z,18.30
2018-08-30T00:08:12.993Z,18.30
2018-08-30T00:10:41.753Z,18.30
2018-08-30T00:13:10.541Z,18.30
2018-08-30T00:15:39.191Z,18.20
2018-08-30T00:18:07.433Z,18.30
2018-08-30T00:20:36.397Z,18.30
2018-08-30T00:23:05.375Z,18.30
2018-08-30T00:25:33.653Z,18.20
2018-08-30T00:28:01.729Z,18.20
2018-08-30T00:30:30.138Z,18.10
2018-08-30T00:32:58.281Z,18.10
2018-08-30T00:35:27.522Z,18.10
2018-08-30T00:37:55.620Z,18.10
2018-08-30T00:40:24.709Z,18.10
2018-08-30T00:42:53.220Z,18.10
2018-08-30T00:45:22.433Z,18.10
2018-08-30T00:47:50.888Z,18.10
2018-08-30T00:50:19.893Z,18.10
2018-08-30T00:52:47.977Z,18.00
2018-08-30T00:55:16.734Z,18.10
2018-08-30T00:57:45.188Z,18.00
2018-08-30T01:00:13.724Z,18.10
2018-08-30T01:02:42.737Z,18.20
2018-08-30T01:05:11.938Z,18.20
2018-08-30T01:07:40.718Z,18.20
2018-08-30T01:10:09.291Z,18.20
2018-08-30T01:12:43.252Z,18.20
2018-08-30T01:15:12.933Z,18.10
2018-08-30T01:17:41.996Z,18.10
2018-08-30T01:20:10.279Z,18.10
2018-08-30T01:22:39.579Z,18.00
2018-08-30T01:25:07.878Z,18.00
2018-08-30T01:27:37.209Z,18.10
2018-08-30T01:30:05.766Z,18.10
2018-08-30T01:32:34.327Z,18.10
2018-08-30T01:35:02.937Z,18.10
2018-08-30T01:37:31.310Z,18.10
2018-08-30T01:39:59.797Z,18.00
2018-08-30T01:42:28.404Z,18.00
2018-08-30T01:44:57.721Z,17.90
2018-08-30T01:47:25.833Z,17.90
2018-08-30T01:49:54.070Z,17.90
2018-08-30T01:52:22.690Z,17.90
2018-08-30T01:54:50.775Z,17.80
2018-08-30T01:57:19.078Z,17.80
2018-08-30T01:59:47.754Z,17.80
2018-08-30T02:02:16.185Z,17.80
2018-08-30T02:04:44.531Z,17.80
2018-08-30T02:07:12.709Z,17.70
2018-08-30T02:09:41.754Z,17.70
2018-08-30T02:12:10.390Z,17.70
2018-08-30T02:14:38.551Z,17.60
2018-08-30T02:17:06.877Z,17.60
2018-08-30T02:19:35.510Z,17.50
2018-08-30T02:22:03.990Z,17.40
2018-08-30T02:24:32.621Z,17.40
2018-08-30T02:27:02.187Z,17.30
2018-08-30T02:29:30.358Z,17.30
2018-08-30T02:31:58.777Z,17.20
2018-08-30T02:34:28.182Z,17.30
2018-08-30T02:36:56.413Z,17.30
2018-08-30T02:39:26.726Z,17.30
2018-08-30T02:41:54.773Z,17.30
2018-08-30T02:44:23.723Z,17.40
2018-08-30T02:46:53.933Z,17.40
2018-08-30T02:49:23.541Z,17.40
2018-08-30T02:51:52.541Z,17.40
2018-08-30T02:54:21.753Z,17.40
2018-08-30T02:56:50.493Z,17.40
2018-08-30T02:59:18.889Z,17.40
2018-08-30T03:01:48.814Z,17.40
2018-08-30T03:04:17.829Z,17.40
2018-08-30T03:06:46.221Z,17.30
2018-08-30T03:09:15.240Z,17.20
2018-08-30T03:11:44.829Z,17.00
2018-08-30T03:14:12.978Z,16.90
2018-08-30T03:16:42.637Z,16.90
2018-08-30T03:19:10.829Z,16.80
2018-08-30T03:21:39.754Z,16.70
2018-08-30T03:24:09.220Z,16.70
2018-08-30T03:26:37.428Z,16.70
2018-08-30T03:29:05.610Z,16.60
2018-08-30T03:31:34.593Z,16.50
2018-08-30T03:34:02.804Z,16.50
2018-08-30T03:36:31.595Z,16.40
2018-08-30T03:39:00.313Z,16.30
2018-08-30T03:41:29.381Z,16.20
2018-08-30T03:43:57.720Z,16.20
2018-08-30T03:46:26.688Z,16.10
2018-08-30T03:48:55.496Z,16.00
2018-08-30T03:51:23.682Z,16.00
2018-08-30T03:53:51.790Z,16.00
2018-08-30T03:56:19.927Z,15.90
2018-08-30T03:58:48.638Z,15.90
2018-08-30T04:01:16.869Z,15.90
2018-08-30T04:03:46.126Z,15.80
2018-08-30T04:06:14.251Z,15.80
2018-08-30T04:08:43.153Z,15.80
2018-08-30T04:11:11.333Z,15.80
2018-08-30T04:13:39.804Z,15.80
2018-08-30T04:16:07.857Z,15.80
2018-08-30T04:18:36.502Z,15.80
2018-08-30T04:21:04.649Z,15.80
2018-08-30T04:23:33.321Z,15.80
2018-08-30T04:26:02.433Z,15.80
2018-08-30T04:28:30.968Z,15.80
2018-08-30T04:30:59.055Z,15.80
2018-08-30T04:33:27.542Z,15.80
2018-08-30T04:35:57.717Z,15.80
2018-08-30T04:38:26.885Z,15.80
2018-08-30T04:40:55.013Z,15.80
2018-08-30T04:43:23.845Z,15.80
2018-08-30T04:45:52.332Z,15.80
2018-08-30T04:48:21.297Z,15.70
2018-08-30T04:50:50.645Z,15.70
2018-08-30T04:53:18.977Z,15.60
2018-08-30T04:55:48.686Z,15.70
2018-08-30T04:58:17.913Z,15.70
2018-08-30T05:00:46.605Z,15.70
2018-08-30T05:03:15.329Z,15.60
2018-08-30T05:05:43.866Z,15.60
2018-08-30T05:08:12.253Z,15.70
2018-08-30T05:10:40.416Z,15.70
2018-08-30T05:13:08.609Z,15.70
2018-08-30T05:15:37.390Z,15.60
2018-08-30T05:18:05.570Z,15.60
2018-08-30T05:20:33.994Z,15.60
2018-08-30T05:23:02.592Z,15.70
2018-08-30T05:25:30.970Z,15.60
2018-08-30T05:27:59.276Z,15.60
2018-08-30T05:30:28.198Z,15.60
2018-08-30T05:32:57.197Z,15.60
2018-08-30T05:35:25.573Z,15.70
2018-08-30T05:37:54.446Z,15.70
2018-08-30T05:40:22.615Z,15.70
2018-08-30T05:42:50.818Z,15.70
2018-08-30T05:45:19.309Z,15.70
2018-08-30T05:47:47.433Z,15.60
2018-08-30T05:50:15.596Z,15.70
2018-08-30T05:52:43.659Z,15.70
2018-08-30T05:55:11.870Z,15.70
2018-08-30T05:57:40.797Z,15.70
2018-08-30T06:00:09.007Z,15.80
2018-08-30T06:02:37.109Z,15.80
2018-08-30T06:05:05.787Z,15.80
2018-08-30T06:07:34.485Z,15.70
2018-08-30T06:10:03.381Z,15.70
2018-08-30T06:12:33.466Z,15.90
2018-08-30T06:15:01.885Z,15.90
2018-08-30T06:17:30.295Z,15.90
2018-08-30T06:19:58.450Z,15.90
2018-08-30T06:22:29.145Z,16.00
2018-08-30T06:24:57.845Z,16.00
2018-08-30T06:27:25.994Z,16.10
2018-08-30T06:29:55.789Z,16.10
2018-08-30T06:32:24.016Z,16.10
2018-08-30T06:34:52.635Z,16.20
2018-08-30T06:37:21.591Z,16.20
2018-08-30T06:39:50.202Z,16.20
2018-08-30T06:42:18.986Z,16.20
2018-08-30T06:44:48.045Z,16.20
2018-08-30T06:47:17.228Z,16.20
2018-08-30T06:49:46.449Z,16.10
2018-08-30T06:52:15.417Z,16.10
2018-08-30T06:54:43.645Z,16.00
2018-08-30T06:57:11.776Z,16.00
2018-08-30T06:59:41.018Z,16.00
2018-08-30T07:02:09.153Z,16.00
2018-08-30T07:04:37.389Z,16.00
2018-08-30T07:07:07.133Z,16.10
2018-08-30T07:09:35.717Z,16.00
2018-08-30T07:12:04.307Z,16.10
2018-08-30T07:14:32.526Z,16.00
2018-08-30T07:17:01.060Z,16.00
2018-08-30T07:19:30.040Z,16.00
2018-08-30T07:21:58.440Z,16.00
2018-08-30T07:24:26.769Z,16.00
2018-08-30T07:26:54.900Z,16.00
2018-08-30T07:29:24.349Z,16.10
2018-08-30T07:31:53.189Z,16.10
2018-08-30T07:34:23.043Z,16.10
2018-08-30T07:36:52.022Z,16.00
2018-08-30T07:39:21.937Z,16.00
2018-08-30T07:41:50.293Z,16.00
2018-08-30T07:44:19.311Z,16.00
2018-08-30T07:46:48.495Z,16.00
2018-08-30T07:49:16.961Z,16.10
2018-08-30T07:51:45.233Z,16.10
2018-08-30T07:54:13.825Z,15.90
2018-08-30T07:56:41.948Z,15.90
2018-08-30T07:59:10.328Z,16.00
2018-08-30T08:01:38.474Z,16.00
2018-08-30T08:04:06.933Z,16.10
2018-08-30T08:06:35.537Z,16.20
2018-08-30T08:09:06.403Z,16.20
2018-08-30T08:11:35.067Z,16.20
2018-08-30T08:14:03.518Z,16.20
2018-08-30T08:16:31.898Z,16.30
2018-08-30T08:19:00.907Z,16.30
2018-08-30T08:21:29.178Z,16.30
2018-08-30T08:23:58.653Z,16.30
2018-08-30T08:26:26.738Z,16.40
2018-08-30T08:28:55.165Z,16.40
2018-08-30T08:31:24.384Z,16.50
2018-08-30T08:33:53.141Z,16.50
2018-08-30T08:36:22.051Z,16.40
2018-08-30T08:38:51.141Z,16.50
2018-08-30T08:41:19.908Z,16.50
2018-08-30T08:43:48.073Z,16.50
2018-08-30T08:46:16.445Z,16.50
2018-08-30T08:48:44.579Z,16.30
2018-08-30T08:51:13.545Z,16.60
2018-08-30T08:53:41.612Z,16.60
2018-08-30T08:56:10.561Z,16.60
2018-08-30T08:58:39.681Z,16.60
2018-08-30T09:01:07.821Z,16.60
2018-08-30T09:03:36.278Z,16.80
2018-08-30T09:06:05.245Z,16.90
2018-08-30T09:08:33.570Z,16.80
2018-08-30T09:11:01.816Z,16.70
2018-08-30T09:13:29.944Z,16.90
2018-08-30T09:15:59.782Z,17.00
2018-08-30T09:18:28.036Z,17.10
2018-08-30T09:20:56.140Z,17.10
2018-08-30T09:23:25.026Z,17.00
2018-08-30T09:25:53.134Z,17.00
2018-08-30T09:28:21.277Z,17.10
2018-08-30T09:30:49.445Z,17.10
2018-08-30T09:33:19.062Z,17.00
2018-08-30T09:35:47.721Z,17.10
2018-08-30T09:38:16.781Z,17.10
2018-08-30T09:40:44.887Z,17.10
2018-08-30T09:43:13.885Z,17.30
2018-08-30T09:45:42.081Z,17.40
2018-08-30T09:48:10.365Z,17.30
2018-08-30T09:50:39.756Z,17.30
2018-08-30T09:53:08.990Z,17.20
2018-08-30T09:55:37.557Z,17.10
2018-08-30T09:58:06.349Z,17.10
2018-08-30T10:00:39.941Z,17.00
2018-08-30T10:03:08.698Z,17.00
2018-08-30T10:05:36.797Z,17.10
2018-08-30T10:08:05.369Z,17.30
2018-08-30T10:10:33.725Z,17.50
2018-08-30T10:13:01.921Z,17.60
2018-08-30T10:15:30.257Z,17.40
2018-08-30T10:17:58.925Z,17.30
2018-08-30T10:20:27.590Z,17.00
2018-08-30T10:22:55.726Z,17.00
2018-08-30T10:25:24.154Z,16.90
2018-08-30T10:27:53.405Z,16.80
2018-08-30T10:30:22.346Z,16.90
2018-08-30T10:32:50.918Z,17.00
2018-08-30T10:35:20.166Z,17.10
2018-08-30T10:37:48.656Z,17.00
2018-08-30T10:40:17.074Z,17.00
2018-08-30T10:42:45.233Z,16.90
2018-08-30T10:45:14.086Z,16.90
2018-08-30T10:47:42.701Z,17.00
2018-08-30T10:50:12.126Z,16.90
2018-08-30T10:52:42.041Z,16.70
2018-08-30T10:55:11.817Z,16.60
2018-08-30T10:57:40.102Z,16.60
2018-08-30T11:00:08.457Z,16.60
2018-08-30T11:02:36.830Z,16.40
2018-08-30T11:05:05.178Z,16.30
2018-08-30T11:07:33.453Z,16.40
2018-08-30T11:10:02.238Z,16.40
2018-08-30T11:12:31.114Z,16.50
2018-08-30T11:14:59.369Z,16.50
2018-08-30T11:17:28.709Z,16.50
2018-08-30T11:26:54.556Z,16.30
2018-08-30T11:29:23.166Z,16.30
2018-08-30T11:31:51.833Z,16.30
2018-08-30T11:34:21.448Z,16.20
2018-08-30T11:36:50.741Z,16.10
2018-08-30T11:39:19.273Z,16.10
2018-08-30T11:41:48.386Z,16.00
2018-08-30T11:44:17.957Z,16.00
2018-08-30T11:46:46.210Z,16.00
2018-08-30T11:49:14.374Z,16.00
2018-08-30T11:51:42.609Z,15.90
2018-08-30T11:54:10.839Z,16.00
2018-08-30T11:56:38.869Z,16.00
2018-08-30T11:59:07.284Z,15.90
2018-08-30T12:01:36.393Z,16.00
2018-08-30T12:04:04.529Z,16.00
2018-08-30T12:06:33.264Z,16.00
2018-08-30T12:09:02.437Z,16.00
2018-08-30T12:11:30.677Z,15.80
2018-08-30T12:13:59.300Z,15.80
2018-08-30T12:16:27.521Z,15.70
2018-08-30T12:18:56.625Z,15.70
2018-08-30T12:21:24.643Z,15.80
2018-08-30T12:23:53.097Z,15.80
2018-08-30T12:26:22.117Z,15.80
2018-08-30T12:28:51.047Z,15.80
2018-08-30T12:31:19.954Z,15.80
2018-08-30T12:33:49.338Z,15.70
2018-08-30T12:36:17.537Z,15.80
2018-08-30T12:38:46.016Z,15.80
2018-08-30T12:41:14.620Z,15.90
2018-08-30T12:43:42.782Z,15.80
2018-08-30T12:46:11.279Z,15.90
2018-08-30T12:48:41.207Z,15.90
2018-08-30T12:51:09.710Z,15.90
2018-08-30T12:53:37.950Z,16.00
2018-08-30T12:56:06.782Z,16.00
2018-08-30T12:58:35.289Z,16.10
2018-08-30T13:01:03.378Z,16.00
2018-08-30T13:03:31.684Z,16.00
2018-08-30T13:06:00.497Z,15.90
2018-08-30T13:08:29.882Z,15.90
2018-08-30T13:10:58.138Z,15.90
2018-08-30T13:13:26.856Z,15.90
2018-08-30T13:15:55.976Z,15.90
2018-08-30T13:18:24.457Z,15.80
2018-08-30T13:20:52.896Z,15.70
2018-08-30T13:23:21.187Z,15.70
2018-08-30T13:25:50.858Z,15.70
2018-08-30T13:28:19.846Z,15.70
2018-08-30T13:30:48.813Z,15.60
2018-08-30T13:33:19.904Z,15.60
2018-08-30T13:35:45.158Z,15.50
2018-08-30T13:38:14.209Z,15.50
2018-08-30T13:40:42.436Z,15.50
2018-08-30T13:43:10.381Z,15.40
2018-08-30T13:45:38.993Z,15.40
2018-08-30T13:48:07.797Z,15.40
2018-08-30T13:50:36.264Z,15.40
2018-08-30T13:53:04.336Z,15.40
2018-08-30T13:55:33.248Z,15.40
2018-08-30T13:58:01.820Z,15.40
2018-08-30T14:00:30.469Z,15.40
2018-08-30T14:02:59.172Z,15.40
2018-08-30T14:05:29.463Z,15.40
2018-08-30T14:07:57.786Z,15.40
2018-08-30T14:10:26.581Z,15.50
2018-08-30T14:12:54.705Z,15.50
2018-08-30T14:15:23.491Z,15.60
2018-08-30T14:17:51.352Z,15.60
2018-08-30T14:20:20.281Z,15.60
2018-08-30T14:22:48.493Z,15.60
2018-08-30T14:25:17.546Z,15.70
2018-08-30T14:27:45.767Z,15.80
2018-08-30T14:30:15.145Z,15.90
2018-08-30T14:32:44.338Z,15.90
2018-08-30T14:35:13.325Z,15.90
2018-08-30T14:37:42.517Z,15.80
2018-08-30T14:40:11.218Z,15.90
2018-08-30T14:42:39.407Z,15.90
2018-08-30T14:45:07.488Z,15.80
2018-08-30T14:47:35.854Z,15.80
2018-08-30T14:50:04.402Z,15.80
2018-08-30T14:52:33.382Z,15.70
2018-08-30T14:55:02.426Z,15.70
2018-08-30T14:57:31.524Z,15.80
2018-08-30T15:00:00.529Z,15.70
2018-08-30T15:02:29.987Z,15.70
2018-08-30T15:04:59.054Z,15.80
2018-08-30T15:07:27.117Z,15.90
2018-08-30T15:09:56.161Z,15.90
2018-08-30T15:12:25.150Z,16.00
2018-08-30T15:14:54.381Z,16.00
2018-08-30T15:17:22.634Z,16.00
2018-08-30T15:19:50.958Z,16.00
2018-08-30T15:22:19.147Z,16.10
2018-08-30T15:24:47.281Z,16.20
2018-08-30T15:27:16.343Z,16.30
2018-08-30T15:29:45.001Z,16.40
2018-08-30T15:32:13.501Z,16.30
2018-08-30T15:34:42.460Z,16.30
2018-08-30T15:37:10.655Z,16.30
2018-08-30T15:39:38.685Z,16.30
2018-08-30T15:42:06.889Z,16.30
2018-08-30T15:44:35.309Z,16.30
2018-08-30T15:47:04.207Z,16.30
2018-08-30T15:49:32.845Z,16.20
2018-08-30T15:52:01.677Z,16.10
2018-08-30T15:54:29.901Z,16.20
2018-08-30T15:56:58.034Z,16.10
2018-08-30T15:59:28.498Z,16.10
2018-08-30T16:01:57.960Z,16.00
2018-08-30T16:04:26.441Z,16.00
2018-08-30T16:06:55.280Z,16.20
2018-08-30T16:09:23.469Z,16.20
2018-08-30T16:11:51.598Z,16.20
2018-08-30T16:14:19.811Z,16.20
2018-08-30T16:16:48.139Z,16.20
2018-08-30T16:19:17.137Z,16.30
2018-08-30T16:21:45.325Z,16.30
2018-08-30T16:24:13.664Z,16.30
2018-08-30T16:26:43.241Z,16.30
2018-08-30T16:29:12.440Z,16.30
2018-08-30T16:31:40.531Z,16.30
2018-08-30T16:34:10.146Z,16.50
2018-08-30T16:36:38.561Z,16.50
2018-08-30T16:39:08.971Z,16.50
2018-08-30T16:41:37.326Z,16.50
2018-08-30T16:44:06.026Z,16.50
2018-08-30T16:46:34.665Z,16.40
2018-08-30T16:49:04.121Z,16.40
2018-08-30T16:51:32.858Z,16.40
2018-08-30T16:54:03.022Z,16.30
2018-08-30T16:56:31.319Z,16.20
2018-08-30T16:58:59.689Z,16.20
2018-08-30T17:01:29.214Z,16.10
2018-08-30T17:03:58.173Z,15.90
2018-08-30T17:06:28.420Z,15.90
2018-08-30T17:08:57.361Z,15.80
2018-08-30T17:11:25.755Z,15.80
2018-08-30T17:13:54.686Z,15.70
2018-08-30T17:16:23.256Z,15.60
2018-08-30T17:18:54.895Z,15.40
2018-08-30T17:21:23.853Z,15.40
2018-08-30T17:23:51.934Z,15.30
2018-08-30T17:26:20.245Z,15.20
2018-08-30T17:28:49.288Z,15.10
2018-08-30T17:31:17.415Z,15.00
2018-08-30T17:33:45.958Z,14.90
2018-08-30T17:36:14.182Z,14.90
2018-08-30T17:38:44.249Z,14.80
2018-08-30T17:41:13.181Z,14.80
2018-08-30T17:43:41.392Z,14.70
2018-08-30T17:46:10.375Z,14.70
2018-08-30T17:48:38.742Z,14.70
2018-08-30T17:51:07.916Z,14.60
2018-08-30T17:53:36.711Z,14.60
2018-08-30T17:56:05.468Z,14.50
2018-08-30T17:58:33.682Z,14.40
2018-08-30T18:01:02.457Z,14.40
2018-08-30T18:03:30.709Z,14.30
2018-08-30T18:06:00.105Z,14.30
2018-08-30T18:08:28.860Z,14.30
2018-08-30T18:10:57.315Z,14.30
2018-08-30T18:13:26.185Z,14.10
2018-08-30T18:15:55.161Z,14.10
2018-08-30T18:18:23.334Z,14.00
2018-08-30T18:20:51.892Z,14.00
2018-08-30T18:23:20.733Z,13.90
2018-08-30T18:25:49.382Z,13.80
2018-08-30T18:28:17.546Z,13.80
2018-08-30T18:30:45.919Z,13.80
2018-08-30T18:33:14.266Z,13.80
2018-08-30T18:35:42.764Z,13.80
2018-08-30T18:38:10.830Z,13.80
2018-08-30T18:40:39.093Z,13.70
2018-08-30T18:43:07.473Z,13.60
2018-08-30T18:45:35.584Z,13.60
2018-08-30T18:48:04.831Z,13.60
2018-08-30T18:50:33.201Z,13.60
2018-08-30T18:53:01.641Z,13.50
2018-08-30T18:55:29.838Z,13.50
2018-08-30T18:57:59.258Z,13.40
2018-08-30T19:00:27.525Z,13.30
2018-08-30T19:02:55.673Z,13.30
2018-08-30T19:05:23.871Z,13.20
2018-08-30T19:07:52.035Z,13.20
2018-08-30T19:10:20.140Z,13.20
2018-08-30T19:12:50.274Z,13.20
2018-08-30T19:15:24.698Z,13.10
2018-08-30T19:17:58.565Z,13.10
2018-08-30T19:20:27.248Z,13.10
2018-08-30T19:22:56.466Z,13.10
2018-08-30T19:25:28.350Z,13.00
2018-08-30T19:27:56.902Z,13.00
2018-08-30T19:30:27.095Z,13.00
2018-08-30T19:32:56.762Z,13.00
2018-08-30T19:35:30.484Z,12.90
2018-08-30T19:37:59.078Z,13.00
2018-08-30T19:40:32.537Z,12.90
2018-08-30T19:43:01.117Z,12.90
2018-08-30T19:45:30.846Z,12.90
2018-08-30T19:47:59.197Z,12.80
2018-08-30T19:50:28.264Z,12.80
2018-08-30T19:52:56.852Z,12.80
2018-08-30T19:55:25.845Z,12.80
2018-08-30T19:57:54.542Z,12.80
2018-08-30T20:00:23.930Z,12.70
2018-08-30T20:02:53.034Z,12.70
2018-08-30T20:05:21.713Z,12.60
2018-08-30T20:07:49.898Z,12.60
2018-08-30T20:10:18.993Z,12.50
2018-08-30T20:12:47.113Z,12.50
2018-08-30T20:15:15.575Z,12.40
2018-08-30T20:17:45.081Z,12.40
2018-08-30T20:21:37.709Z,12.40
2018-08-30T20:24:07.110Z,12.40
2018-08-30T20:26:35.815Z,12.30
2018-08-30T20:29:03.989Z,12.30
2018-08-30T20:31:32.174Z,12.30
2018-08-30T20:34:00.941Z,12.20
2018-08-30T20:36:29.085Z,12.20
2018-08-30T20:38:57.326Z,12.20
2018-08-30T20:41:26.423Z,12.20
2018-08-30T20:43:54.579Z,12.20
2018-08-30T20:46:23.731Z,12.20
2018-08-30T20:48:53.005Z,12.20
2018-08-30T20:51:21.181Z,12.10
2018-08-30T20:53:50.316Z,12.10
2018-08-30T20:56:18.389Z,12.10
2018-08-30T20:58:47.658Z,12.00
2018-08-30T21:01:15.897Z,12.00
2018-08-30T21:03:45.112Z,11.90
2018-08-30T21:06:13.245Z,11.90
2018-08-30T21:08:42.877Z,11.80
2018-08-30T21:11:11.018Z,11.80
2018-08-30T21:13:39.250Z,11.80
2018-08-30T21:16:08.088Z,11.70
2018-08-30T21:18:37.109Z,11.70
2018-08-30T21:21:05.894Z,11.70
2018-08-30T21:23:33.993Z,11.80
2018-08-30T21:26:02.876Z,11.60
2018-08-30T21:28:31.481Z,11.60
2018-08-30T21:30:59.585Z,11.50
2018-08-30T21:33:28.549Z,11.50
2018-08-30T21:35:57.418Z,11.40
2018-08-30T21:38:26.226Z,11.40
2018-08-30T21:40:54.326Z,11.40
2018-08-30T21:43:22.773Z,11.30
2018-08-30T21:45:51.526Z,11.30
2018-08-30T21:48:19.733Z,11.30
2018-08-30T21:50:48.716Z,11.20
2018-08-30T21:53:17.112Z,11.20
2018-08-30T21:55:50.050Z,11.20
2018-08-30T21:58:18.907Z,11.10
2018-08-30T22:00:47.934Z,11.10
2018-08-30T22:03:17.537Z,11.00
2018-08-30T22:05:45.622Z,11.00
2018-08-30T22:08:14.499Z,11.00
2018-08-30T22:10:42.761Z,10.90
2018-08-30T22:13:11.387Z,10.90
2018-08-30T22:15:39.433Z,10.90
2018-08-30T22:18:09.665Z,10.90
2018-08-30T22:20:38.101Z,10.90
2018-08-30T22:23:06.240Z,10.80
2018-08-30T22:25:34.825Z,10.80
2018-08-30T22:28:03.366Z,10.80
2018-08-30T22:30:31.713Z,10.80
2018-08-30T22:33:00.229Z,10.80
2018-08-30T22:35:29.029Z,10.80
2018-08-30T22:37:58.050Z,10.80
2018-08-30T22:40:27.437Z,10.70
2018-08-30T22:42:56.190Z,10.70
2018-08-30T22:45:24.902Z,10.70
2018-08-30T22:47:53.414Z,10.60
2018-08-30T22:50:21.570Z,10.50
2018-08-30T22:52:50.353Z,10.60
2018-08-30T22:55:20.156Z,10.60
2018-08-30T22:57:49.275Z,10.60
2018-08-30T23:00:17.963Z,10.50
2018-08-30T23:02:46.762Z,10.50
2018-08-30T23:05:15.181Z,10.50
2018-08-30T23:07:44.152Z,10.40
2018-08-30T23:10:12.304Z,10.40
2018-08-30T23:12:41.302Z,10.40
2018-08-30T23:15:09.448Z,10.40
2018-08-30T23:17:37.526Z,10.30
2018-08-30T23:20:06.389Z,10.30
2018-08-30T23:22:34.805Z,10.30
2018-08-30T23:25:04.017Z,10.30
2018-08-30T23:27:33.121Z,10.30
2018-08-30T23:30:01.347Z,10.30
2018-08-30T23:32:31.682Z,10.30
2018-08-30T23:35:00.716Z,10.30
2018-08-30T23:37:28.841Z,10.30
2018-08-30T23:39:58.694Z,10.20
2018-08-30T23:42:27.458Z,10.20
2018-08-30T23:44:57.538Z,10.20
2018-08-30T23:47:25.961Z,10.20
2018-08-30T23:49:54.690Z,10.10
2018-08-30T23:52:23.538Z,10.10
2018-08-30T23:54:51.893Z,10.00
2018-08-30T23:57:20.761Z,10.00
